Time;durP1;ratioP1;P1;durP2;ratioP2;P2;SDS_P1;SDS_P2;PMS_P1;PMS_P2;Temp;Humidity;BMP_temperature;BMP_pressure;BME280_temperature;BME280_humidity;BME280_pressure;Samples;Min_cycle;Max_cycle;Signal;HPM_P1;HPM_P2
2022/04/09 00:02:01;;;;;;;;;1.50;0.00;;;;;5.59;80.75;-18620.72;4948789;28;11053;-70
2022/04/09 00:04:28;;;;;;;;;1.00;0.75;;;;;5.49;82.72;-18617.69;4951123;28;10994;-71
2022/04/09 00:06:54;;;;;;;;;1.00;0.00;;;;;5.31;83.17;-18612.41;4966197;28;11085;-71
2022/04/09 00:09:21;;;;;;;;;1.00;0.00;;;;;5.22;82.98;-18609.69;4952128;29;10827;-70
2022/04/09 00:11:48;;;;;;;;;0.00;0.00;;;;;5.22;82.94;-18609.81;4952070;28;10921;-70
2022/04/09 00:14:15;;;;;;;;;0.75;0.50;;;;;5.35;83.65;-18613.47;4950638;29;10922;-69
2022/04/09 00:16:41;;;;;;;;;0.00;0.00;;;;;5.36;83.27;-18613.75;4951914;28;11014;-70
2022/04/09 00:19:08;;;;;;;;;2.75;1.50;;;;;5.30;81.98;-18612.09;4949576;28;10906;-69
2022/04/09 00:21:36;;;;;;;;;0.00;0.00;;;;;5.36;81.96;-18613.75;4952030;28;11017;-70
2022/04/09 00:24:02;;;;;;;;;1.00;1.00;;;;;5.38;82.02;-18614.50;4951954;28;10854;-70
2022/04/09 00:26:29;;;;;;;;;4.00;0.50;;;;;5.31;81.71;-18612.41;4951474;28;11075;-70
2022/04/09 00:28:55;;;;;;;;;1.00;1.00;;;;;5.39;81.85;-18614.81;4958799;28;11088;-69
2022/04/09 00:31:22;;;;;;;;;1.00;1.00;;;;;5.43;81.86;-18615.88;4949786;28;11162;-68
2022/04/09 00:33:48;;;;;;;;;1.00;1.00;;;;;5.36;81.38;-18613.91;4940754;29;10902;-68
2022/04/09 00:36:16;;;;;;;;;0.00;0.00;;;;;5.43;81.58;-18615.88;4954255;28;10992;-69
2022/04/09 00:38:42;;;;;;;;;0.00;0.00;;;;;5.40;81.91;-18615.13;4955222;28;10986;-69
2022/04/09 00:41:10;;;;;;;;;2.25;1.75;;;;;5.39;82.48;-18614.81;4969686;28;11152;-70
2022/04/09 00:43:41;;;;;;;;;0.00;0.00;;;;;5.30;82.35;-18611.94;4954655;28;10896;-69
2022/04/09 00:46:11;;;;;;;;;1.00;0.00;;;;;5.30;83.19;-18612.09;4954490;28;10933;-71
2022/04/09 00:48:37;;;;;;;;;0.00;0.00;;;;;5.35;83.08;-18613.47;4962567;28;10929;-71
2022/04/09 00:51:04;;;;;;;;;0.00;0.00;;;;;5.37;82.99;-18614.06;4955162;28;10997;-69
2022/04/09 00:53:34;;;;;;;;;1.50;1.00;;;;;5.42;83.30;-18615.56;4955181;28;11040;-71
2022/04/09 00:56:20;;;;;;;;;0.75;0.75;;;;;5.52;83.08;-18618.59;4952369;28;10993;-71
2022/04/09 00:58:55;;;;;;;;;1.25;1.25;;;;;5.11;83.61;-18606.34;4953394;28;11818;-71
2022/04/09 01:01:23;;;;;;;;;1.75;1.25;;;;;4.83;85.05;-18598.03;4953504;28;11181;-72
2022/04/09 01:03:51;;;;;;;;;0.00;0.00;;;;;4.78;85.56;-18596.66;4953671;28;11771;-71
2022/04/09 01:06:18;;;;;;;;;0.00;0.00;;;;;4.61;85.45;-18591.53;4953662;28;11026;-71
2022/04/09 01:08:45;;;;;;;;;0.00;0.00;;;;;4.69;85.84;-18593.94;4953196;28;11158;-72
2022/04/09 01:11:15;;;;;;;;;1.00;1.00;;;;;4.68;85.60;-18593.47;4953574;28;11004;-71
2022/04/09 01:13:44;;;;;;;;;0.25;0.00;;;;;4.72;84.83;-18594.84;4949822;28;11092;-73
2022/04/09 01:16:10;;;;;;;;;0.00;0.00;;;;;4.83;84.97;-18598.03;4969639;28;11151;-70
2022/04/09 01:18:37;;;;;;;;;0.50;0.00;;;;;4.81;83.84;-18597.56;4953067;28;10955;-71
2022/04/09 01:21:08;;;;;;;;;0.00;0.00;;;;;4.83;83.33;-18598.03;4953267;28;11141;-70
2022/04/09 01:23:35;;;;;;;;;0.00;0.00;;;;;4.80;83.46;-18597.13;4952893;28;11157;-71
2022/04/09 01:26:03;;;;;;;;;0.00;0.00;;;;;4.95;84.18;-18601.66;4951754;28;11227;-72
2022/04/09 01:28:30;;;;;;;;;1.00;0.25;;;;;4.97;83.52;-18602.25;4934992;28;11116;-72
2022/04/09 01:30:57;;;;;;;;;0.00;0.00;;;;;4.94;83.62;-18601.50;4953198;28;11077;-71
2022/04/09 01:33:24;;;;;;;;;1.50;0.75;;;;;4.97;83.18;-18602.25;4952194;28;11061;-71
2022/04/09 01:35:52;;;;;;;;;0.50;0.00;;;;;4.96;82.51;-18601.97;4960635;28;11264;-72
2022/04/09 01:38:19;;;;;;;;;0.00;0.00;;;;;5.03;83.09;-18604.06;4951886;28;11160;-71
2022/04/09 01:40:46;;;;;;;;;0.50;0.50;;;;;5.02;82.81;-18603.78;4951087;28;11223;-71
2022/04/09 01:43:13;;;;;;;;;0.00;0.00;;;;;5.00;82.39;-18603.16;4951568;28;11116;-70
2022/04/09 01:45:40;;;;;;;;;0.00;0.00;;;;;5.06;82.60;-18604.84;4952878;28;10945;-72
2022/04/09 01:48:15;;;;;;;;;0.00;0.00;;;;;5.04;83.27;-18604.38;4951767;28;10995;-71
2022/04/09 01:50:42;;;;;;;;;0.00;0.00;;;;;4.95;82.58;-18601.81;4951015;28;11648;-71
2022/04/09 01:53:08;;;;;;;;;0.00;0.00;;;;;5.12;83.17;-18606.66;4953384;28;11074;-72
2022/04/09 01:55:35;;;;;;;;;0.00;0.00;;;;;5.10;83.03;-18606.19;4946424;28;11126;-71
2022/04/09 01:58:03;;;;;;;;;2.00;1.00;;;;;5.10;82.50;-18606.03;4951920;28;10905;-72
2022/04/09 02:00:33;;;;;;;;;0.25;0.25;;;;;5.12;82.25;-18606.81;4951993;28;11073;-71
2022/04/09 02:03:00;;;;;;;;;0.00;0.00;;;;;5.17;82.36;-18608.16;4952403;28;11041;-72
2022/04/09 02:05:27;;;;;;;;;0.00;0.00;;;;;5.17;82.37;-18608.31;4952740;28;11710;-72
2022/04/09 02:07:54;;;;;;;;;0.00;0.00;;;;;5.16;82.38;-18608.00;4951395;28;11045;-72
2022/04/09 02:10:21;;;;;;;;;0.00;0.00;;;;;5.10;81.77;-18606.03;4960563;28;11202;-71
2022/04/09 02:12:48;;;;;;;;;0.25;0.00;;;;;5.18;82.39;-18608.47;4952415;28;10988;-71
2022/04/09 02:15:17;;;;;;;;;0.00;0.00;;;;;5.15;82.11;-18607.72;4968206;28;10909;-70
2022/04/09 02:17:44;;;;;;;;;0.00;0.00;;;;;5.06;81.54;-18604.97;4952020;28;10972;-71
2022/04/09 02:20:12;;;;;;;;;1.00;1.00;;;;;5.16;82.13;-18608.00;4952357;28;11149;-72
2022/04/09 02:22:42;;;;;;;;;0.00;0.00;;;;;5.23;81.97;-18609.97;4952460;28;11246;-73
2022/04/09 02:25:11;;;;;;;;;4.00;0.00;;;;;5.27;82.44;-18611.03;4966316;28;11208;-71
2022/04/09 02:27:38;;;;;;;;;1.00;0.00;;;;;5.25;82.92;-18610.72;4966887;28;11187;-72
2022/04/09 02:30:08;;;;;;;;;0.50;0.50;;;;;5.30;83.25;-18611.94;4952221;28;11067;-71
2022/04/09 02:32:51;;;;;;;;;0.00;0.00;;;;;5.27;83.41;-18611.19;4951988;28;11199;-72
2022/04/09 02:35:26;;;;;;;;;0.00;0.00;;;;;5.18;83.75;-18608.63;4952079;28;11146;-71
2022/04/09 02:37:53;;;;;;;;;0.00;0.00;;;;;5.05;85.05;-18604.69;4967012;28;10845;-72
2022/04/09 02:40:21;;;;;;;;;2.25;0.75;;;;;5.16;85.79;-18607.84;4951573;28;11133;-71
2022/04/09 02:42:51;;;;;;;;;2.50;0.25;;;;;5.15;85.76;-18607.72;4967829;28;11223;-72
2022/04/09 02:45:18;;;;;;;;;0.00;0.00;;;;;5.24;86.29;-18610.44;4952010;28;11140;-72
2022/04/09 02:47:45;;;;;;;;;0.25;0.25;;;;;5.19;85.70;-18608.91;4951234;28;11103;-71
2022/04/09 02:50:15;;;;;;;;;1.00;0.00;;;;;5.31;86.78;-18612.41;4966449;28;11234;-71
2022/04/09 02:52:45;;;;;;;;;1.00;1.00;;;;;5.21;86.62;-18609.53;4951566;28;11159;-72
2022/04/09 02:55:13;;;;;;;;;1.50;0.25;;;;;5.16;84.79;-18608.00;4950801;28;11236;-69
2022/04/09 02:57:40;;;;;;;;;2.75;1.00;;;;;5.22;84.90;-18609.81;4967456;28;11148;-72
2022/04/09 03:00:13;;;;;;;;;1.75;1.00;;;;;5.18;84.57;-18608.63;4967011;28;11381;-72
2022/04/09 03:02:42;;;;;;;;;3.00;3.00;;;;;5.24;84.32;-18610.28;4944083;28;11152;-71
2022/04/09 03:05:19;;;;;;;;;0.25;0.25;;;;;5.31;82.79;-18612.41;4948835;28;11221;-71
2022/04/09 03:07:45;;;;;;;;;4.50;2.00;;;;;5.34;82.87;-18613.16;4950806;28;11168;-71
2022/04/09 03:10:11;;;;;;;;;1.75;1.00;;;;;5.41;83.31;-18615.28;4966240;28;11491;-71
2022/04/09 03:12:43;;;;;;;;;1.00;1.00;;;;;5.34;83.38;-18613.31;4951435;28;11296;-72
2022/04/09 03:15:10;;;;;;;;;1.00;0.00;;;;;4.96;85.54;-18601.97;4951549;28;11065;-71
2022/04/09 03:17:37;;;;;;;;;0.00;0.00;;;;;4.75;85.75;-18595.59;4950874;28;11129;-71
2022/04/09 03:20:06;;;;;;;;;0.25;0.25;;;;;4.70;86.41;-18594.09;4966815;28;11219;-71
2022/04/09 03:22:33;;;;;;;;;2.00;0.00;;;;;4.70;86.84;-18594.09;4948165;28;11165;-72
2022/04/09 03:25:00;;;;;;;;;0.00;0.00;;;;;4.67;86.46;-18593.34;4935249;28;11208;-72
2022/04/09 03:27:29;;;;;;;;;0.00;0.00;;;;;4.84;87.30;-18598.31;4950929;28;11522;-71
2022/04/09 03:29:58;;;;;;;;;2.00;1.00;;;;;4.88;87.25;-18599.53;4935352;28;11462;-71
2022/04/09 03:32:26;;;;;;;;;1.00;0.00;;;;;4.89;86.89;-18600.00;4951112;28;11481;-72
2022/04/09 03:34:53;;;;;;;;;3.25;1.00;;;;;4.99;87.26;-18602.88;4952174;28;11201;-72
2022/04/09 03:37:23;;;;;;;;;1.00;1.00;;;;;4.87;87.45;-18599.38;4950925;28;12371;-72
2022/04/09 03:39:52;;;;;;;;;0.00;0.00;;;;;4.89;87.57;-18599.84;4942803;28;11239;-72
2022/04/09 03:42:19;;;;;;;;;1.00;1.00;;;;;4.88;88.12;-18599.53;4947603;29;11157;-72
2022/04/09 03:44:52;;;;;;;;;0.00;0.00;;;;;4.93;88.04;-18601.06;4956961;28;11221;-71
2022/04/09 03:47:18;;;;;;;;;1.00;1.00;;;;;4.96;88.14;-18601.97;4965499;28;11507;-69
2022/04/09 03:49:45;;;;;;;;;0.00;0.00;;;;;4.94;87.98;-18601.50;4952079;28;11502;-72
2022/04/09 03:52:12;;;;;;;;;1.00;0.00;;;;;4.99;87.59;-18602.72;4951032;28;11505;-74
2022/04/09 03:54:41;;;;;;;;;1.00;1.00;;;;;4.95;87.04;-18601.81;4951010;29;11144;-72
2022/04/09 03:57:11;;;;;;;;;1.00;0.00;;;;;4.92;86.42;-18600.91;4949275;28;11537;-73
2022/04/09 03:59:45;;;;;;;;;0.00;0.00;;;;;4.91;84.62;-18600.44;4951002;28;11477;-72
2022/04/09 04:02:13;;;;;;;;;0.00;0.00;;;;;5.06;85.24;-18604.84;4949314;28;11885;-72
2022/04/09 04:04:43;;;;;;;;;0.00;0.00;;;;;4.92;84.48;-18600.91;4950428;28;11302;-73
2022/04/09 04:07:13;;;;;;;;;0.75;0.75;;;;;5.04;84.50;-18604.38;4950292;28;11254;-73
2022/04/09 04:09:42;;;;;;;;;0.00;0.00;;;;;4.95;83.02;-18601.81;4951074;28;11269;-72
2022/04/09 04:12:09;;;;;;;;;0.75;0.00;;;;;4.86;82.24;-18598.94;4954974;28;11471;-72
2022/04/09 04:14:36;;;;;;;;;0.00;0.00;;;;;4.88;82.30;-18599.69;4969447;28;11574;-72
2022/04/09 04:17:03;;;;;;;;;1.50;0.00;;;;;4.89;82.63;-18599.84;4962272;28;11847;-72
2022/04/09 04:19:32;;;;;;;;;0.00;0.00;;;;;4.83;81.89;-18598.19;4953330;28;12207;-72
2022/04/09 04:21:59;;;;;;;;;0.25;0.00;;;;;4.89;82.03;-18600.00;4970584;28;11073;-73
2022/04/09 04:24:25;;;;;;;;;0.25;0.25;;;;;4.75;81.13;-18595.75;4954424;28;11823;-70
2022/04/09 04:26:54;;;;;;;;;0.75;0.75;;;;;4.85;81.30;-18598.63;4953867;28;11254;-71
2022/04/09 04:29:23;;;;;;;;;0.50;0.50;;;;;4.83;81.14;-18598.19;4953291;28;11178;-72
2022/04/09 04:31:51;;;;;;;;;0.00;0.00;;;;;4.92;81.94;-18600.91;4948769;28;11111;-73
2022/04/09 04:34:18;;;;;;;;;0.00;0.00;;;;;4.97;81.81;-18602.13;4948668;28;11158;-73
2022/04/09 04:36:45;;;;;;;;;0.00;0.00;;;;;5.02;81.40;-18603.78;4953924;28;11600;-73
2022/04/09 04:39:13;;;;;;;;;0.00;0.00;;;;;5.07;82.03;-18605.13;4954273;28;11151;-72
2022/04/09 04:41:43;;;;;;;;;0.50;0.00;;;;;5.02;82.06;-18603.63;4953794;28;11153;-72
2022/04/09 04:44:10;;;;;;;;;0.50;0.50;;;;;5.07;81.87;-18605.13;4952561;28;11072;-72
2022/04/09 04:46:43;;;;;;;;;0.00;0.00;;;;;5.10;81.96;-18606.03;4948331;28;11254;-72
2022/04/09 04:49:15;;;;;;;;;2.00;1.00;;;;;5.15;81.59;-18607.72;4952518;28;11231;-72
2022/04/09 04:51:43;;;;;;;;;0.00;0.00;;;;;5.22;81.14;-18609.69;4961775;28;11192;-73
2022/04/09 04:54:10;;;;;;;;;0.50;0.50;;;;;5.20;81.17;-18609.06;4953724;28;11056;-71
2022/04/09 04:56:41;;;;;;;;;1.00;0.50;;;;;5.18;80.92;-18608.47;4954165;28;11219;-71
2022/04/09 04:59:08;;;;;;;;;0.00;0.00;;;;;5.22;80.19;-18609.81;4969949;28;11141;-72
2022/04/09 05:01:40;;;;;;;;;1.00;0.00;;;;;5.27;80.88;-18611.19;4953700;28;11627;-72
2022/04/09 05:04:07;;;;;;;;;1.00;1.00;;;;;5.22;80.97;-18609.69;4952279;28;11105;-71
2022/04/09 05:06:35;;;;;;;;;0.25;0.25;;;;;5.07;82.93;-18605.28;4969230;28;11188;-73
2022/04/09 05:09:04;;;;;;;;;0.00;0.00;;;;;4.98;84.43;-18602.41;4953375;28;11201;-71
2022/04/09 05:11:53;;;;;;;;;0.25;0.00;;;;;4.96;85.18;-18601.97;4954973;28;11051;-72
2022/04/09 05:14:25;;;;;;;;;0.00;0.00;;;;;4.91;85.44;-18600.59;4946719;28;10989;-72
2022/04/09 05:16:57;;;;;;;;;3.75;1.25;;;;;4.91;85.78;-18600.44;4951825;28;11102;-72
2022/04/09 05:19:26;;;;;;;;;1.25;1.00;;;;;5.03;86.03;-18604.06;4959333;28;11155;-72
2022/04/09 05:22:00;;;;;;;;;0.00;0.00;;;;;5.04;85.53;-18604.22;4951886;28;11591;-72
2022/04/09 05:24:30;;;;;;;;;0.25;0.00;;;;;5.05;85.28;-18604.53;4969706;28;11163;-71
2022/04/09 05:26:57;;;;;;;;;0.00;0.00;;;;;5.08;85.67;-18605.59;4952162;28;11156;-72
2022/04/09 05:29:26;;;;;;;;;1.00;1.00;;;;;5.17;84.66;-18608.31;4953446;28;11227;-71
2022/04/09 05:31:54;;;;;;;;;0.00;0.00;;;;;5.34;83.53;-18613.16;4952644;28;11597;-70
2022/04/09 05:34:21;;;;;;;;;0.50;0.50;;;;;5.45;81.20;-18616.47;4968652;28;12289;-73
2022/04/09 05:36:49;;;;;;;;;1.00;0.00;;;;;5.52;81.04;-18618.75;4952985;28;11562;-72
2022/04/09 05:39:17;;;;;;;;;0.00;0.00;;;;;5.45;78.77;-18616.47;4969108;28;11401;-71
2022/04/09 05:41:45;;;;;;;;;0.00;0.00;;;;;5.37;77.44;-18614.22;4952761;28;11273;-71
2022/04/09 05:44:11;;;;;;;;;1.00;0.25;;;;;5.27;76.36;-18611.03;4954424;28;11140;-72
2022/04/09 05:46:38;;;;;;;;;0.00;0.00;;;;;5.30;77.71;-18612.09;4952573;28;11162;-72
2022/04/09 05:49:07;;;;;;;;;1.00;0.00;;;;;5.21;76.64;-18609.38;4952140;28;11048;-71
2022/04/09 05:51:36;;;;;;;;;0.00;0.00;;;;;5.19;77.67;-18608.75;4954094;28;11310;-74
2022/04/09 05:54:04;;;;;;;;;0.00;0.00;;;;;5.18;77.44;-18608.47;4951019;28;11229;-72
2022/04/09 05:56:34;;;;;;;;;0.00;0.00;;;;;5.24;77.64;-18610.28;4952722;28;11201;-72
2022/04/09 05:59:01;;;;;;;;;0.00;0.00;;;;;5.20;77.73;-18609.06;4951813;28;11251;-71
2022/04/09 06:01:45;;;;;;;;;0.00;0.00;;;;;5.27;78.69;-18611.19;4947028;28;11079;-72
2022/04/09 06:04:16;;;;;;;;;0.00;0.00;;;;;5.25;78.38;-18610.59;4952407;28;11939;-71
2022/04/09 06:06:43;;;;;;;;;0.00;0.00;;;;;5.31;77.93;-18612.41;4967820;28;11816;-73
2022/04/09 06:09:12;;;;;;;;;0.00;0.00;;;;;5.42;78.97;-18615.56;4968641;28;11196;-73
2022/04/09 06:11:48;;;;;;;;;1.00;0.00;;;;;5.65;78.80;-18622.53;4951494;28;11283;-72
2022/04/09 06:14:20;;;;;;;;;0.00;0.00;;;;;6.23;78.37;-18639.78;4967854;28;11348;-72
2022/04/09 06:16:48;;;;;;;;;0.50;0.00;;;;;6.13;78.38;-18636.75;4965788;28;10995;-71
2022/04/09 06:19:16;;;;;;;;;0.25;0.00;;;;;6.31;79.82;-18642.03;4952975;28;11062;-73
2022/04/09 06:21:43;;;;;;;;;0.00;0.00;;;;;6.16;79.83;-18637.81;4952426;28;11209;-72
2022/04/09 06:24:14;;;;;;;;;0.00;0.00;;;;;6.00;80.36;-18632.81;4943864;28;11091;-72
2022/04/09 06:26:41;;;;;;;;;0.25;0.00;;;;;5.97;80.43;-18631.91;4932675;28;10943;-72
2022/04/09 06:29:08;;;;;;;;;0.00;0.00;;;;;5.96;80.71;-18631.75;4947176;28;10989;-73
2022/04/09 06:31:34;;;;;;;;;0.25;0.25;;;;;5.80;79.58;-18627.06;4952160;28;11861;-72
2022/04/09 06:34:01;;;;;;;;;0.00;0.00;;;;;5.75;79.92;-18625.41;4950622;28;10934;-72
2022/04/09 06:36:27;;;;;;;;;1.00;0.00;;;;;6.19;79.46;-18638.56;4968138;28;10983;-69
2022/04/09 06:38:54;;;;;;;;;0.00;0.00;;;;;6.32;77.78;-18642.34;4951672;28;11159;-72
2022/04/09 06:41:28;;;;;;;;;0.00;0.00;;;;;6.53;78.74;-18648.53;4950084;28;11058;-73
2022/04/09 06:43:56;;;;;;;;;0.00;0.00;;;;;6.73;77.38;-18654.59;4966853;28;10887;-72
2022/04/09 06:46:37;;;;;;;;;0.00;0.00;;;;;6.72;77.67;-18654.28;4950605;28;10834;-71
2022/04/09 06:49:13;;;;;;;;;0.00;0.00;;;;;6.67;77.95;-18652.78;4951085;28;11058;-71
2022/04/09 06:51:44;;;;;;;;;0.25;0.00;;;;;7.15;77.46;-18667.13;4953063;28;10877;-72
2022/04/09 06:54:20;;;;;;;;;2.00;0.00;;;;;7.41;77.20;-18675.00;4982726;23;10863;-70
2022/04/09 06:56:47;;;;;;;;;0.00;0.00;;;;;7.66;76.07;-18682.38;4985934;28;10831;-69
2022/04/09 06:59:16;;;;;;;;;2.00;1.00;;;;;7.89;74.85;-18689.03;4986020;28;10840;-69
2022/04/09 07:01:42;;;;;;;;;1.50;1.00;;;;;7.97;74.29;-18691.47;4987219;28;10822;-69
2022/04/09 07:04:09;;;;;;;;;0.25;0.25;;;;;7.65;72.41;-18681.94;4971231;28;10680;-69
2022/04/09 07:06:36;;;;;;;;;0.00;0.00;;;;;7.36;73.61;-18673.47;4971970;28;10773;-69
2022/04/09 07:09:02;;;;;;;;;0.00;0.00;;;;;6.95;72.51;-18661.09;4971864;28;10786;-69
2022/04/09 07:11:28;;;;;;;;;1.00;1.00;;;;;7.07;72.85;-18664.72;4987048;28;10621;-69
2022/04/09 07:13:55;;;;;;;;;0.00;0.00;;;;;7.67;72.14;-18682.53;4968770;28;11504;-69
2022/04/09 07:16:21;;;;;;;;;0.00;0.00;;;;;8.26;70.47;-18700.22;4971171;28;10905;-70
2022/04/09 07:18:48;;;;;;;;;1.75;0.00;;;;;8.42;70.45;-18704.75;4977784;28;10792;-69
2022/04/09 07:21:14;;;;;;;;;0.00;0.00;;;;;8.99;68.79;-18721.81;4971998;28;10534;-69
2022/04/09 07:23:41;;;;;;;;;1.00;1.00;;;;;8.57;67.85;-18709.28;4985717;28;10637;-69
2022/04/09 07:26:07;;;;;;;;;0.00;0.00;;;;;8.08;70.70;-18694.63;4971810;28;10597;-69
2022/04/09 07:28:34;;;;;;;;;0.00;0.00;;;;;7.45;72.37;-18675.91;4969876;28;10626;-69
2022/04/09 07:31:00;;;;;;;;;0.00;0.00;;;;;7.03;73.40;-18663.50;4982092;28;10295;-69
2022/04/09 07:33:27;;;;;;;;;2.00;0.00;;;;;6.98;73.90;-18662.16;4967384;28;10539;-69
2022/04/09 07:35:55;;;;;;;;;0.00;0.00;;;;;6.72;73.95;-18654.28;4965473;28;10659;-69
2022/04/09 07:38:21;;;;;;;;;0.50;0.50;;;;;6.75;75.06;-18655.19;4971165;28;10603;-69
2022/04/09 07:40:48;;;;;;;;;0.00;0.00;;;;;6.63;75.81;-18651.56;4970956;28;10792;-69
2022/04/09 07:43:17;;;;;;;;;1.00;1.00;;;;;6.98;76.13;-18662.16;4985202;28;10711;-69
2022/04/09 07:45:43;;;;;;;;;0.00;0.00;;;;;7.44;74.32;-18675.59;4970064;28;11487;-69
2022/04/09 07:48:11;;;;;;;;;1.00;0.00;;;;;8.15;72.75;-18696.75;4970446;28;10841;-69
2022/04/09 07:50:38;;;;;;;;;0.00;0.00;;;;;8.52;70.02;-18707.94;4971452;28;10667;-68
2022/04/09 07:53:05;;;;;;;;;0.00;0.00;;;;;8.68;68.21;-18712.47;4970605;28;10699;-69
2022/04/09 07:55:31;;;;;;;;;0.00;0.00;;;;;8.98;66.63;-18721.38;4971707;28;10594;-69
2022/04/09 07:57:58;;;;;;;;;0.00;0.00;;;;;9.15;67.35;-18726.50;4971039;28;10466;-69
2022/04/09 08:00:31;;;;;;;;;1.00;1.00;;;;;9.25;65.86;-18729.66;4970680;28;10447;-69
2022/04/09 08:02:57;;;;;;;;;1.00;1.00;;;;;8.94;66.64;-18720.31;4971557;28;11198;-69
2022/04/09 08:05:24;;;;;;;;;0.25;0.25;;;;;8.50;65.60;-18707.31;4968129;28;10305;-68
2022/04/09 08:07:50;;;;;;;;;0.00;0.00;;;;;8.26;64.26;-18700.06;4971287;28;10315;-68
2022/04/09 08:10:18;;;;;;;;;0.00;0.00;;;;;9.00;63.31;-18722.13;4971150;28;11052;-68
2022/04/09 08:12:48;;;;;;;;;0.00;0.00;;;;;8.69;63.18;-18712.91;4971559;28;10303;-69
2022/04/09 08:15:17;;;;;;;;;0.00;0.00;;;;;8.61;63.80;-18710.50;4970147;28;10471;-69
2022/04/09 08:17:47;;;;;;;;;1.00;0.50;;;;;9.18;63.05;-18727.41;4971317;28;10303;-69
2022/04/09 08:20:14;;;;;;;;;0.00;0.00;;;;;9.10;63.16;-18725.00;4970097;28;10379;-69
2022/04/09 08:22:41;;;;;;;;;0.25;0.25;;;;;9.00;64.85;-18722.13;4970214;28;10387;-69
2022/04/09 08:25:10;;;;;;;;;0.00;0.00;;;;;8.49;66.27;-18707.03;4970442;28;10929;-70
2022/04/09 08:27:38;;;;;;;;;0.00;0.00;;;;;8.05;70.04;-18693.88;4971336;28;10609;-69
2022/04/09 08:30:06;;;;;;;;;0.00;0.00;;;;;7.07;69.85;-18664.88;4970406;28;11028;-69
2022/04/09 08:32:33;;;;;;;;;1.00;0.00;;;;;6.80;73.39;-18656.69;4971761;28;10418;-69
2022/04/09 08:35:00;;;;;;;;;0.00;0.00;;;;;6.98;75.86;-18662.00;4969731;28;10402;-70
2022/04/09 08:37:26;;;;;;;;;0.50;0.50;;;;;6.99;75.92;-18662.28;4971100;28;10604;-69
2022/04/09 08:39:54;;;;;;;;;1.00;1.00;;;;;6.91;75.00;-18660.03;4986453;28;10680;-69
2022/04/09 08:42:24;;;;;;;;;0.00;0.00;;;;;7.34;75.30;-18672.72;4970280;28;10938;-69
2022/04/09 08:44:50;;;;;;;;;0.00;0.00;;;;;7.40;75.20;-18674.69;4976433;28;10807;-69
2022/04/09 08:47:17;;;;;;;;;1.00;1.00;;;;;7.71;73.34;-18683.91;4969519;28;10890;-69
2022/04/09 08:49:47;;;;;;;;;2.00;1.50;;;;;8.24;73.37;-18699.47;4970544;28;10928;-70
2022/04/09 08:52:15;;;;;;;;;1.50;1.50;;;;;8.30;72.01;-18701.28;4971023;28;10742;-69
2022/04/09 08:54:42;;;;;;;;;0.00;0.00;;;;;8.79;68.81;-18715.78;4970113;28;10719;-69
2022/04/09 08:57:08;;;;;;;;;0.75;0.75;;;;;8.18;69.97;-18697.81;4972927;28;11419;-69
2022/04/09 08:59:35;;;;;;;;;0.00;0.00;;;;;8.13;71.06;-18696.13;4989296;28;10539;-69
2022/04/09 09:02:02;;;;;;;;;0.00;0.00;;;;;7.78;69.98;-18685.72;4973154;28;10606;-69
2022/04/09 09:04:30;;;;;;;;;2.75;0.00;;;;;7.68;71.17;-18683.00;4987464;28;11339;-69
2022/04/09 09:07:16;;;;;;;;;0.75;0.00;;;;;7.67;72.68;-18682.53;4974251;28;10529;-69
2022/04/09 09:09:42;;;;;;;;;0.25;0.25;;;;;7.66;74.27;-18682.25;4972624;28;10596;-69
2022/04/09 09:12:12;;;;;;;;;2.00;0.00;;;;;7.33;74.20;-18672.41;4973626;28;10483;-69
2022/04/09 09:14:44;;;;;;;;;0.00;0.00;;;;;7.26;74.01;-18670.47;4966614;28;10626;-68
2022/04/09 09:17:11;;;;;;;;;0.00;0.00;;;;;7.17;73.32;-18667.72;4988820;28;10692;-68
2022/04/09 09:19:43;;;;;;;;;0.00;0.00;;;;;7.22;72.45;-18669.09;4972315;28;10764;-68
2022/04/09 09:22:10;;;;;;;;;0.00;0.00;;;;;7.69;71.71;-18683.16;4973917;28;10456;-68
2022/04/09 09:24:37;;;;;;;;;1.25;1.00;;;;;8.64;67.56;-18711.56;4973478;28;10429;-69
2022/04/09 09:27:05;;;;;;;;;0.00;0.00;;;;;9.64;65.72;-18741.00;4973941;28;10690;-69
2022/04/09 09:29:33;;;;;;;;;1.50;0.00;;;;;10.24;65.14;-18758.97;4988282;28;10480;-68
2022/04/09 09:32:01;;;;;;;;;3.00;0.00;;;;;10.70;61.09;-18772.69;4972970;28;10455;-69
2022/04/09 09:34:30;;;;;;;;;0.75;0.75;;;;;10.25;63.24;-18759.25;4972304;28;10480;-69
2022/04/09 09:36:56;;;;;;;;;1.00;1.00;;;;;10.36;62.64;-18762.56;4988455;28;10241;-69
2022/04/09 09:39:25;;;;;;;;;0.50;0.00;;;;;10.05;60.32;-18753.22;4973575;28;10390;-69
2022/04/09 09:41:54;;;;;;;;;0.00;0.00;;;;;9.77;59.17;-18744.91;4972954;28;10243;-69
2022/04/09 09:44:23;;;;;;;;;0.50;0.00;;;;;10.30;58.36;-18760.78;4972687;28;10322;-69
2022/04/09 09:46:51;;;;;;;;;1.75;0.00;;;;;10.83;57.30;-18776.47;4965010;28;10155;-69
2022/04/09 09:49:21;;;;;;;;;0.00;0.00;;;;;11.09;56.09;-18784.16;4972629;28;10239;-69
2022/04/09 09:52:09;;;;;;;;;0.25;0.00;;;;;10.24;55.42;-18758.97;4969712;28;10238;-69
2022/04/09 09:55:02;;;;;;;;;1.50;1.00;;;;;9.46;60.62;-18735.72;4973728;28;10073;-69
2022/04/09 09:57:29;;;;;;;;;0.25;0.25;;;;;9.09;63.02;-18724.84;4972303;28;10143;-69
2022/04/09 09:59:58;;;;;;;;;3.00;1.75;;;;;8.62;65.51;-18710.78;4966833;28;10205;-68
2022/04/09 10:02:31;;;;;;;;;0.00;0.00;;;;;8.24;67.17;-18699.47;4972064;28;10296;-69
2022/04/09 10:04:58;;;;;;;;;0.50;0.50;;;;;8.12;68.33;-18696.00;4973311;28;10238;-69
2022/04/09 10:07:25;;;;;;;;;0.00;0.00;;;;;7.86;69.17;-18688.28;4970839;28;10400;-69
2022/04/09 10:09:53;;;;;;;;;0.75;0.75;;;;;8.58;67.56;-18709.75;4972781;28;10282;-68
2022/04/09 10:12:21;;;;;;;;;0.00;0.00;;;;;9.44;64.32;-18735.09;4987283;28;10336;-68
2022/04/09 10:14:56;;;;;;;;;0.75;0.00;;;;;9.70;62.45;-18742.97;4971593;28;10467;-70
2022/04/09 10:17:24;;;;;;;;;0.00;0.00;;;;;9.37;62.81;-18733.00;4972814;28;10319;-69
2022/04/09 10:19:55;;;;;;;;;0.00;0.00;;;;;9.11;63.30;-18725.28;4971337;28;10207;-69
2022/04/09 10:22:37;;;;;;;;;0.00;0.00;;;;;9.65;62.80;-18741.44;4972663;28;11171;-69
2022/04/09 10:25:07;;;;;;;;;0.00;0.00;;;;;10.56;60.74;-18768.31;4973028;28;10302;-69
2022/04/09 10:27:43;;;;;;;;;0.00;0.00;;;;;11.07;59.37;-18783.69;4968528;28;10194;-69
2022/04/09 10:30:16;;;;;;;;;0.75;0.75;;;;;11.48;59.40;-18795.63;4972526;28;10087;-69
2022/04/09 10:32:57;;;;;;;;;0.00;0.00;;;;;11.58;58.62;-18798.63;4961135;28;10152;-69
2022/04/09 10:35:28;;;;;;;;;0.00;0.00;;;;;11.63;58.29;-18800.28;4972918;28;10081;-69
2022/04/09 10:38:06;;;;;;;;;0.00;0.00;;;;;11.19;52.58;-18787.16;4970729;28;9907;-69
2022/04/09 10:40:34;;;;;;;;;0.00;0.00;;;;;11.34;54.09;-18791.69;4972655;28;9804;-69
2022/04/09 10:43:01;;;;;;;;;0.25;0.25;;;;;11.42;52.77;-18793.81;4971520;28;9874;-69
2022/04/09 10:45:28;;;;;;;;;0.00;0.00;;;;;11.55;53.23;-18797.72;4986507;28;9745;-69
2022/04/09 10:48:07;;;;;;;;;0.00;0.00;;;;;11.08;53.71;-18784.00;4985350;28;9995;-70
2022/04/09 10:50:54;;;;;;;;;0.00;0.00;;;;;10.38;56.55;-18763.03;4972392;28;9956;-70
2022/04/09 10:53:22;;;;;;;;;0.00;0.00;;;;;8.91;64.17;-18719.56;4971463;28;9980;-70
2022/04/09 10:56:14;;;;;;;;;0.25;0.00;;;;;7.94;70.71;-18690.56;4971972;28;9892;-69
2022/04/09 10:59:16;;;;;;;;;0.00;0.00;;;;;7.94;73.45;-18690.56;4986333;28;10011;-69
2022/04/09 11:01:43;;;;;;;;;0.00;0.00;;;;;8.22;73.75;-18698.88;4965098;28;10153;-69
2022/04/09 11:04:32;;;;;;;;;0.00;0.00;;;;;8.76;71.71;-18715.03;4971833;28;10278;-69
2022/04/09 11:07:15;;;;;;;;;1.00;0.00;;;;;9.08;70.60;-18724.38;4971382;28;10440;-70
2022/04/09 11:09:50;;;;;;;;;0.00;0.00;;;;;9.35;70.62;-18732.53;4962340;28;10324;-70
2022/04/09 11:12:19;;;;;;;;;1.00;0.00;;;;;9.58;68.35;-18739.34;4971988;28;10428;-70
2022/04/09 11:14:55;;;;;;;;;1.50;0.00;;;;;9.90;68.83;-18748.84;4972153;28;10373;-69
2022/04/09 11:17:28;;;;;;;;;0.00;0.00;;;;;10.29;66.13;-18760.47;4971154;28;10296;-70
2022/04/09 11:19:59;;;;;;;;;0.50;0.50;;;;;10.09;64.59;-18754.44;4970746;28;10242;-69
2022/04/09 11:22:37;;;;;;;;;0.00;0.00;;;;;10.67;63.81;-18771.63;4969970;28;10418;-69
2022/04/09 11:25:06;;;;;;;;;0.00;0.00;;;;;11.10;60.77;-18784.44;4983136;28;10246;-69
2022/04/09 11:27:33;;;;;;;;;0.00;0.00;;;;;11.58;61.02;-18798.78;4951863;28;9997;-69
2022/04/09 11:30:01;;;;;;;;;1.00;0.00;;;;;10.73;62.14;-18773.44;4971100;28;10057;-69
2022/04/09 11:32:29;;;;;;;;;0.25;0.00;;;;;10.73;63.71;-18773.59;4971006;28;9913;-69
2022/04/09 11:34:58;;;;;;;;;1.75;0.00;;;;;10.77;61.72;-18774.81;4971878;28;9830;-69
2022/04/09 11:37:29;;;;;;;;;0.00;0.00;;;;;10.42;62.35;-18764.25;4970132;28;9995;-70
2022/04/09 11:40:03;;;;;;;;;0.00;0.00;;;;;10.27;61.59;-18759.88;4970966;28;10174;-69
2022/04/09 11:42:41;;;;;;;;;2.50;2.00;;;;;10.48;58.81;-18766.19;4985384;28;9930;-69